createdAt,value
2018-10-18T00:01:29.723Z,101584.09
2018-10-18T00:03:57.898Z,101584.31
2018-10-18T00:06:26.075Z,101582.76
2018-10-18T00:08:54.261Z,101579.61
2018-10-18T00:11:22.447Z,101583.59
2018-10-18T00:13:50.643Z,101582.27
2018-10-18T00:16:18.819Z,101572.46
2018-10-18T00:18:47.028Z,101576.59
2018-10-18T00:21:15.219Z,101571.75
2018-10-18T00:23:43.391Z,101579.39
2018-10-18T00:26:11.640Z,101575.17
2018-10-18T00:28:39.744Z,101578.47
2018-10-18T00:31:07.903Z,101575.80
2018-10-18T00:33:36.103Z,101573.27
2018-10-18T00:36:04.705Z,101583.44
2018-10-18T00:38:32.822Z,101580.06
2018-10-18T00:41:00.988Z,101582.05
2018-10-18T00:43:29.146Z,101580.50
2018-10-18T00:45:57.333Z,101579.30
2018-10-18T00:48:25.506Z,101580.63
2018-10-18T00:50:53.710Z,101580.98
2018-10-18T00:53:21.872Z,101580.02
2018-10-18T00:55:50.084Z,101581.20
2018-10-18T00:58:18.281Z,101589.03
2018-10-18T01:00:46.467Z,101584.71
2018-10-18T01:03:14.649Z,101589.37
2018-10-18T01:05:42.783Z,101589.03
2018-10-18T01:08:11.035Z,101590.22
2018-10-18T01:10:39.447Z,101590.22
2018-10-18T01:13:07.640Z,101599.05
2018-10-18T01:15:35.778Z,101599.41
2018-10-18T01:18:04.000Z,101603.76
2018-10-18T01:20:32.124Z,101601.09
2018-10-18T01:23:00.301Z,101608.45
2018-10-18T01:25:28.549Z,101605.30
2018-10-18T01:27:56.730Z,101597.45
2018-10-18T01:30:24.999Z,101605.80
2018-10-18T01:32:53.154Z,101602.29
2018-10-18T01:35:21.390Z,101603.13
2018-10-18T01:37:49.623Z,101605.80
2018-10-18T01:40:17.795Z,101611.74
2018-10-18T01:42:45.991Z,101604.73
2018-10-18T01:45:14.173Z,101607.39
2018-10-18T01:47:42.328Z,101609.08
2018-10-18T01:50:10.841Z,101610.77
2018-10-18T01:52:38.948Z,101608.10
2018-10-18T01:55:07.808Z,101608.10
2018-10-18T01:57:36.023Z,101607.13
2018-10-18T02:00:04.742Z,101604.81
2018-10-18T02:02:33.264Z,101605.17
2018-10-18T02:05:01.452Z,101601.17
2018-10-18T02:07:29.676Z,101602.52
2018-10-18T02:09:57.831Z,101609.03
2018-10-18T02:12:26.125Z,101612.81
2018-10-18T02:14:54.360Z,101610.77
2018-10-18T02:17:22.539Z,101617.29
2018-10-18T02:19:50.715Z,101616.94
2018-10-18T02:22:18.887Z,101616.45
2018-10-18T02:24:47.063Z,101616.80
2018-10-18T02:27:15.268Z,101617.86
2018-10-18T02:29:43.472Z,101619.91
2018-10-18T02:32:11.632Z,101622.27
2018-10-18T02:34:39.775Z,101622.12
2018-10-18T02:37:08.020Z,101626.56
2018-10-18T02:39:36.257Z,101628.47
2018-10-18T02:42:04.556Z,101625.18
2018-10-18T02:44:32.647Z,101626.20
2018-10-18T02:47:00.832Z,101620.88
2018-10-18T02:49:29.039Z,101625.31
2018-10-18T02:51:57.254Z,101627.70
2018-10-18T02:54:25.440Z,101633.11
2018-10-18T02:56:53.648Z,101630.84
2018-10-18T02:59:21.835Z,101633.69
2018-10-18T03:01:50.015Z,101634.88
2018-10-18T03:04:18.223Z,101635.38
2018-10-18T03:06:46.380Z,101641.67
2018-10-18T03:09:14.595Z,101642.17
2018-10-18T03:11:42.764Z,101649.84
2018-10-18T03:14:10.968Z,101645.00
2018-10-18T03:16:39.151Z,101648.02
2018-10-18T03:19:07.309Z,101653.84
2018-10-18T03:21:35.495Z,101648.26
2018-10-18T03:24:03.688Z,101645.38
2018-10-18T03:26:31.836Z,101648.31
2018-10-18T03:29:00.039Z,101645.56
2018-10-18T03:31:28.248Z,101642.98
2018-10-18T03:33:56.393Z,101648.71
2018-10-18T03:36:24.595Z,101648.77
2018-10-18T03:38:52.767Z,101650.88
2018-10-18T03:41:21.025Z,101654.79
2018-10-18T03:43:49.194Z,101653.59
2018-10-18T03:46:17.368Z,101650.34
2018-10-18T03:48:45.617Z,101659.94
2018-10-18T03:51:13.843Z,101653.09
2018-10-18T03:53:42.132Z,101660.50
2018-10-18T03:56:10.334Z,101665.02
2018-10-18T03:58:38.519Z,101664.25
2018-10-18T04:01:06.743Z,101665.61
2018-10-18T04:03:34.923Z,101658.38
2018-10-18T04:06:03.215Z,101665.78
2018-10-18T04:08:31.325Z,101663.19
2018-10-18T04:10:59.511Z,101671.07
2018-10-18T04:13:27.719Z,101671.69
2018-10-18T04:15:55.955Z,101665.78
2018-10-18T04:18:24.218Z,101668.61
2018-10-18T04:20:52.332Z,101666.91
2018-10-18T04:23:24.715Z,101665.10
2018-10-18T04:25:53.181Z,101672.23
2018-10-18T04:28:21.358Z,101672.23
2018-10-18T04:30:49.552Z,101680.22
2018-10-18T04:33:17.748Z,101682.88
2018-10-18T04:35:45.923Z,101675.87
2018-10-18T04:38:14.100Z,101682.88
2018-10-18T04:40:42.302Z,101679.73
2018-10-18T04:43:10.462Z,101683.23
2018-10-18T04:45:38.686Z,101684.69
2018-10-18T04:48:07.379Z,101680.34
2018-10-18T04:50:35.373Z,101683.85
2018-10-18T04:53:03.546Z,101672.23
2018-10-18T04:55:31.741Z,101681.55
2018-10-18T04:58:00.071Z,101684.69
2018-10-18T05:00:28.452Z,101685.67
2018-10-18T05:02:57.023Z,101693.78
2018-10-18T05:05:46.283Z,101698.87
2018-10-18T05:08:14.577Z,101696.59
2018-10-18T05:10:42.734Z,101700.71
2018-10-18T05:13:10.994Z,101703.02
2018-10-18T05:15:39.391Z,101701.20
2018-10-18T05:18:08.331Z,101703.66
2018-10-18T05:20:36.920Z,101712.13
2018-10-18T05:23:05.593Z,101714.78
2018-10-18T05:25:34.174Z,101712.48
2018-10-18T05:28:02.508Z,101719.81
2018-10-18T05:30:30.764Z,101719.13
2018-10-18T05:32:58.982Z,101724.16
2018-10-18T05:35:27.235Z,101736.13
2018-10-18T05:37:55.477Z,101729.13
2018-10-18T05:40:23.788Z,101736.74
2018-10-18T05:42:52.003Z,101734.08
2018-10-18T05:45:20.191Z,101729.77
2018-10-18T05:47:48.464Z,101732.91
2018-10-18T05:50:16.647Z,101732.75
2018-10-18T05:52:44.860Z,101738.44
2018-10-18T05:55:13.463Z,101736.61
2018-10-18T05:57:42.095Z,101739.77
2018-10-18T06:00:13.745Z,101739.77
2018-10-18T06:02:42.140Z,101738.23
2018-10-18T06:05:11.445Z,101739.08
2018-10-18T06:07:39.755Z,101743.05
2018-10-18T06:10:19.768Z,101745.48
2018-10-18T06:12:48.175Z,101742.46
2018-10-18T06:15:16.399Z,101745.37
2018-10-18T06:17:44.679Z,101749.28
2018-10-18T06:20:12.944Z,101754.25
2018-10-18T06:22:42.022Z,101761.61
2018-10-18T06:25:11.212Z,101761.33
2018-10-18T06:27:39.395Z,101762.41
2018-10-18T06:30:09.838Z,101764.09
2018-10-18T06:32:38.153Z,101766.98
2018-10-18T06:35:07.356Z,101767.22
2018-10-18T06:37:35.988Z,101773.66
2018-10-18T06:40:04.820Z,101770.23
2018-10-18T06:42:33.011Z,101777.47
2018-10-18T06:45:01.284Z,101779.88
2018-10-18T06:47:29.637Z,101779.75
2018-10-18T06:49:57.842Z,101782.64
2018-10-18T06:52:25.957Z,101777.88
2018-10-18T06:54:54.216Z,101775.58
2018-10-18T06:57:22.349Z,101775.45
2018-10-18T06:59:50.597Z,101775.45
2018-10-18T07:02:18.814Z,101777.14
2018-10-18T07:04:47.035Z,101788.38
2018-10-18T07:07:15.282Z,101792.67
2018-10-18T07:09:43.465Z,101788.42
2018-10-18T07:12:11.845Z,101788.52
2018-10-18T07:14:40.011Z,101791.55
2018-10-18T07:17:08.363Z,101790.93
2018-10-18T07:19:36.623Z,101795.64
2018-10-18T07:22:04.856Z,101796.68
2018-10-18T07:24:33.027Z,101792.92
2018-10-18T07:27:01.497Z,101793.14
2018-10-18T07:29:29.703Z,101796.17
2018-10-18T07:31:57.941Z,101800.03
2018-10-18T07:34:26.342Z,101791.78
2018-10-18T07:36:54.541Z,101791.30
2018-10-18T07:39:22.710Z,101796.86
2018-10-18T07:41:50.966Z,101799.35
2018-10-18T07:44:19.162Z,101803.70
2018-10-18T07:46:47.479Z,101807.08
2018-10-18T07:49:15.611Z,101807.80
2018-10-18T07:51:43.790Z,101816.50
2018-10-18T07:54:12.035Z,101814.06
2018-10-18T07:56:40.204Z,101814.66
2018-10-18T07:59:08.400Z,101811.57
2018-10-18T08:01:36.679Z,101813.36
2018-10-18T08:04:04.884Z,101814.30
2018-10-18T08:06:33.102Z,101810.72
2018-10-18T08:09:01.402Z,101811.52
2018-10-18T08:11:29.604Z,101809.70
2018-10-18T08:13:57.782Z,101814.47
2018-10-18T08:16:26.312Z,101809.81
2018-10-18T08:18:54.552Z,101810.58
2018-10-18T08:21:23.006Z,101815.51
2018-10-18T08:23:51.044Z,101821.41
2018-10-18T08:26:19.246Z,101826.13
2018-10-18T08:28:47.449Z,101823.33
2018-10-18T08:31:15.733Z,101826.18
2018-10-18T08:33:44.194Z,101825.91
2018-10-18T08:36:12.442Z,101822.14
2018-10-18T08:38:40.660Z,101822.22
2018-10-18T08:41:08.847Z,101825.95
2018-10-18T08:43:37.068Z,101826.63
2018-10-18T08:46:05.291Z,101826.72
2018-10-18T08:48:33.527Z,101832.27
2018-10-18T08:51:01.699Z,101834.31
2018-10-18T08:53:29.904Z,101842.04
2018-10-18T08:55:58.119Z,101837.55
2018-10-18T08:58:26.303Z,101842.53
2018-10-18T09:00:55.451Z,101837.06
2018-10-18T09:03:23.575Z,101836.57
2018-10-18T09:05:51.787Z,101842.23
2018-10-18T09:08:19.998Z,101848.05
2018-10-18T09:10:48.287Z,101842.53
2018-10-18T09:13:16.558Z,101844.48
2018-10-18T09:15:44.695Z,101845.95
2018-10-18T09:18:12.871Z,101848.00
2018-10-18T09:20:41.065Z,101847.37
2018-10-18T09:23:09.467Z,101850.23
2018-10-18T09:25:37.692Z,101840.89
2018-10-18T09:28:05.907Z,101848.98
2018-10-18T09:30:34.071Z,101851.02
2018-10-18T09:33:02.282Z,101848.70
2018-10-18T09:35:30.496Z,101851.23
2018-10-18T09:37:58.720Z,101848.44
2018-10-18T09:40:26.924Z,101848.66
2018-10-18T09:42:55.172Z,101854.88
2018-10-18T09:45:23.317Z,101852.30
2018-10-18T09:47:51.551Z,101851.05
2018-10-18T09:50:19.750Z,101857.44
2018-10-18T09:52:48.084Z,101854.11
2018-10-18T09:55:16.351Z,101861.00
2018-10-18T09:57:44.515Z,101863.89
2018-10-18T10:00:18.004Z,101866.31
2018-10-18T10:02:49.218Z,101860.34
2018-10-18T10:05:17.620Z,101860.42
2018-10-18T10:07:46.172Z,101868.48
2018-10-18T10:10:14.344Z,101866.38
2018-10-18T10:12:42.526Z,101866.95
2018-10-18T10:15:10.827Z,101865.33
2018-10-18T10:17:39.146Z,101863.91
2018-10-18T10:20:07.447Z,101863.48
2018-10-18T10:22:35.646Z,101865.25
2018-10-18T10:25:04.034Z,101863.67
2018-10-18T10:27:32.239Z,101870.42
2018-10-18T10:30:00.451Z,101869.16
2018-10-18T10:32:28.687Z,101861.53
2018-10-18T10:34:56.962Z,101863.70
2018-10-18T10:37:25.240Z,101849.67
2018-10-18T10:39:53.443Z,101861.72
2018-10-18T10:42:21.711Z,101855.22
2018-10-18T10:44:49.994Z,101853.68
2018-10-18T10:47:18.130Z,101857.11
2018-10-18T10:49:46.307Z,101855.69
2018-10-18T10:52:14.605Z,101854.42
2018-10-18T10:54:42.744Z,101839.48
2018-10-18T10:57:10.956Z,101837.72
2018-10-18T10:59:39.150Z,101831.80
2018-10-18T11:02:07.569Z,101836.80
2018-10-18T11:04:35.631Z,101831.27
2018-10-18T11:07:03.860Z,101833.77
2018-10-18T11:09:32.108Z,101836.75
2018-10-18T11:12:00.350Z,101835.86
2018-10-18T11:14:28.436Z,101833.11
2018-10-18T11:16:56.672Z,101837.02
2018-10-18T11:19:24.834Z,101832.45
2018-10-18T11:21:53.019Z,101836.26
2018-10-18T11:24:21.327Z,101838.58
2018-10-18T11:26:49.451Z,101837.89
2018-10-18T11:29:17.646Z,101845.56
2018-10-18T11:31:45.843Z,101842.46
2018-10-18T11:34:14.186Z,101839.03
2018-10-18T11:36:42.310Z,101835.64
2018-10-18T11:39:10.967Z,101842.61
2018-10-18T11:41:39.214Z,101839.73
2018-10-18T11:44:07.670Z,101832.91
2018-10-18T11:46:35.770Z,101836.65
2018-10-18T11:49:03.959Z,101833.39
2018-10-18T11:51:32.331Z,101827.90
2018-10-18T11:54:00.359Z,101829.44
2018-10-18T11:56:28.594Z,101828.74
2018-10-18T11:58:56.839Z,101827.41
2018-10-18T12:01:25.274Z,101824.23
2018-10-18T12:03:53.420Z,101824.09
2018-10-18T12:06:21.655Z,101826.44
2018-10-18T12:08:49.915Z,101826.14
2018-10-18T12:11:18.148Z,101829.86
2018-10-18T12:13:46.265Z,101831.05
2018-10-18T12:16:14.451Z,101833.44
2018-10-18T12:18:42.651Z,101824.94
2018-10-18T12:21:10.834Z,101820.48
2018-10-18T12:23:39.253Z,101820.68
2018-10-18T12:26:07.486Z,101822.36
2018-10-18T12:28:35.655Z,101821.38
2018-10-18T12:31:03.874Z,101812.01
2018-10-18T12:33:32.139Z,101816.22
2018-10-18T12:36:00.336Z,101814.41
2018-10-18T12:38:28.503Z,101811.12
2018-10-18T12:40:56.810Z,101809.84
2018-10-18T12:43:24.905Z,101816.23
2018-10-18T12:45:53.087Z,101811.88
2018-10-18T12:48:21.410Z,101810.14
2018-10-18T12:50:49.467Z,101809.25
2018-10-18T12:53:17.666Z,101815.73
2018-10-18T12:55:45.870Z,101810.52
2018-10-18T12:58:14.043Z,101815.38
2018-10-18T13:00:42.233Z,101815.73
2018-10-18T13:03:10.412Z,101813.56
2018-10-18T13:05:38.614Z,101815.64
2018-10-18T13:08:06.865Z,101812.81
2018-10-18T13:10:35.052Z,101810.98
2018-10-18T13:13:03.235Z,101811.52
2018-10-18T13:15:31.446Z,101809.06
2018-10-18T13:17:59.673Z,101808.34
2018-10-18T13:20:27.870Z,101811.70
2018-10-18T13:22:56.071Z,101809.10
2018-10-18T13:25:24.297Z,101812.23
2018-10-18T13:27:52.443Z,101809.20
2018-10-18T13:30:20.644Z,101808.80
2018-10-18T13:32:48.823Z,101812.13
2018-10-18T13:35:16.993Z,101807.22
2018-10-18T13:37:48.104Z,101813.06
2018-10-18T13:40:16.367Z,101810.39
2018-10-18T13:42:44.586Z,101818.91
2018-10-18T13:45:12.767Z,101815.74
2018-10-18T13:47:41.014Z,101812.05
2018-10-18T13:50:09.394Z,101819.39
2018-10-18T13:52:37.620Z,101817.06
2018-10-18T13:55:06.572Z,101809.33
2018-10-18T13:57:34.795Z,101811.81
2018-10-18T14:00:37.316Z,101807.59
2018-10-18T14:03:05.570Z,101803.73
2018-10-18T14:05:33.878Z,101806.06
2018-10-18T14:08:02.098Z,101806.21
2018-10-18T14:10:30.268Z,101803.23
2018-10-18T14:12:58.472Z,101798.28
2018-10-18T14:15:26.647Z,101799.34
2018-10-18T14:17:55.071Z,101794.23
2018-10-18T14:20:23.178Z,101792.94
2018-10-18T14:22:51.372Z,101793.14
2018-10-18T14:25:19.552Z,101799.15
2018-10-18T14:27:47.739Z,101802.86
2018-10-18T14:30:16.129Z,101800.23
2018-10-18T14:32:44.189Z,101799.13
2018-10-18T14:35:13.155Z,101801.49
2018-10-18T14:37:41.400Z,101795.60
2018-10-18T14:40:11.305Z,101789.83
2018-10-18T14:42:39.527Z,101796.95
2018-10-18T14:45:08.480Z,101790.33
2018-10-18T14:47:36.738Z,101793.28
2018-10-18T14:50:05.777Z,101793.53
2018-10-18T14:52:33.882Z,101795.14
2018-10-18T14:55:02.052Z,101793.76
2018-10-18T14:57:30.307Z,101789.00
2018-10-18T14:59:58.510Z,101788.98
2018-10-18T15:02:26.756Z,101791.60
2018-10-18T15:04:54.984Z,101795.41
2018-10-18T15:07:23.427Z,101790.21
2018-10-18T15:09:51.667Z,101785.84
2018-10-18T15:12:23.517Z,101787.52
2018-10-18T15:14:51.895Z,101786.13
2018-10-18T15:17:25.548Z,101783.80
2018-10-18T15:19:54.857Z,101790.83
2018-10-18T15:22:23.031Z,101788.67
2018-10-18T15:24:59.453Z,101795.06
2018-10-18T15:27:28.056Z,101793.88
2018-10-18T15:29:56.220Z,101796.52
2018-10-18T15:32:24.490Z,101803.50
2018-10-18T15:34:53.219Z,101804.28
2018-10-18T15:37:23.190Z,101798.73
2018-10-18T15:39:56.278Z,101803.53
2018-10-18T15:42:25.968Z,101805.68
2018-10-18T15:44:54.246Z,101806.81
2018-10-18T15:47:22.625Z,101800.24
2018-10-18T15:49:53.233Z,101803.41
2018-10-18T15:52:21.607Z,101809.95
2018-10-18T15:54:50.359Z,101800.97
2018-10-18T15:57:18.696Z,101803.65
2018-10-18T15:59:46.963Z,101803.16
2018-10-18T16:02:15.143Z,101802.08
2018-10-18T16:04:43.710Z,101800.88
2018-10-18T16:07:11.958Z,101809.33
2018-10-18T16:09:40.138Z,101810.78
2018-10-18T16:12:08.455Z,101812.20
2018-10-18T16:14:36.624Z,101812.95
2018-10-18T16:17:05.008Z,101815.20
2018-10-18T16:19:35.640Z,101820.63
2018-10-18T16:22:04.111Z,101813.91
2018-10-18T16:24:32.723Z,101819.89
2018-10-18T16:27:00.924Z,101820.66
2018-10-18T16:29:29.135Z,101822.98
2018-10-18T16:31:57.368Z,101825.30
2018-10-18T16:34:25.524Z,101830.29
2018-10-18T16:36:53.719Z,101829.94
2018-10-18T16:39:21.988Z,101828.25
2018-10-18T16:41:50.340Z,101831.27
2018-10-18T16:44:18.650Z,101837.45
2018-10-18T16:46:46.729Z,101832.47
2018-10-18T16:49:14.945Z,101836.97
2018-10-18T16:51:43.162Z,101842.09
2018-10-18T16:54:11.501Z,101841.89
2018-10-18T16:56:39.574Z,101846.55
2018-10-18T16:59:07.774Z,101844.66
2018-10-18T17:01:36.301Z,101840.79
2018-10-18T17:04:04.769Z,101844.23
2018-10-18T17:06:41.511Z,101836.64
2018-10-18T17:09:12.223Z,101842.64
2018-10-18T17:11:43.606Z,101839.27
2018-10-18T17:14:11.815Z,101843.41
2018-10-18T17:16:40.010Z,101843.20
2018-10-18T17:19:08.342Z,101843.69
2018-10-18T17:21:36.504Z,101843.83
2018-10-18T17:24:04.972Z,101851.13
2018-10-18T17:26:33.441Z,101853.45
2018-10-18T17:29:01.552Z,101860.96
2018-10-18T17:31:29.738Z,101861.09
2018-10-18T17:33:58.063Z,101866.09
2018-10-18T17:36:26.441Z,101864.92
2018-10-18T17:38:54.721Z,101864.43
2018-10-18T17:41:22.936Z,101863.91
2018-10-18T17:43:51.215Z,101858.56
2018-10-18T17:46:20.165Z,101857.41
2018-10-18T17:48:48.355Z,101857.33
2018-10-18T17:51:16.659Z,101855.28
2018-10-18T17:53:46.021Z,101860.27
2018-10-18T17:56:14.295Z,101863.67
2018-10-18T17:58:42.447Z,101860.95
2018-10-18T18:01:13.952Z,101862.91
2018-10-18T18:03:42.094Z,101869.37
2018-10-18T18:06:10.509Z,101868.30
2018-10-18T18:08:38.518Z,101869.91
2018-10-18T18:11:06.720Z,101871.88
2018-10-18T18:13:35.143Z,101873.86
2018-10-18T18:16:03.445Z,101871.82
2018-10-18T18:18:31.575Z,101870.13
2018-10-18T18:21:00.363Z,101873.51
2018-10-18T18:23:28.587Z,101869.29
2018-10-18T18:25:56.842Z,101875.25
2018-10-18T18:28:25.117Z,101881.70
2018-10-18T18:30:54.413Z,101881.34
2018-10-18T18:33:22.599Z,101886.67
2018-10-18T18:35:50.815Z,101891.30
2018-10-18T18:38:19.127Z,101883.56
2018-10-18T18:40:47.336Z,101888.58
2018-10-18T18:43:15.676Z,101885.55
2018-10-18T18:45:44.047Z,101883.52
2018-10-18T18:48:12.348Z,101895.16
2018-10-18T18:50:40.588Z,101892.98
2018-10-18T18:53:08.972Z,101891.78
2018-10-18T18:55:37.412Z,101893.02
2018-10-18T18:58:06.126Z,101895.95
2018-10-18T19:00:34.334Z,101896.61
2018-10-18T19:03:02.533Z,101901.23
2018-10-18T19:05:31.041Z,101906.96
2018-10-18T19:07:59.239Z,101909.76
2018-10-18T19:10:27.638Z,101918.73
2018-10-18T19:12:56.192Z,101921.05
2018-10-18T19:15:24.763Z,101921.05
2018-10-18T19:17:53.115Z,101924.06
2018-10-18T19:20:21.788Z,101923.58
2018-10-18T19:22:50.070Z,101921.05
2018-10-18T19:25:18.127Z,101922.60
2018-10-18T19:27:46.450Z,101922.11
2018-10-18T19:30:14.677Z,101927.19
2018-10-18T19:32:42.856Z,101932.52
2018-10-18T19:35:11.043Z,101934.70
2018-10-18T19:37:39.240Z,101935.67
2018-10-18T19:40:08.115Z,101941.13
2018-10-18T19:42:37.215Z,101943.08
2018-10-18T19:45:06.467Z,101941.75
2018-10-18T19:47:36.512Z,101941.04
2018-10-18T19:50:05.534Z,101944.32
2018-10-18T19:52:33.872Z,101942.50
2018-10-18T19:55:01.972Z,101944.68
2018-10-18T19:57:30.182Z,101945.53
2018-10-18T19:59:58.461Z,101936.06
2018-10-18T20:02:26.677Z,101946.86
2018-10-18T20:04:54.929Z,101939.34
2018-10-18T20:07:23.099Z,101942.14
2018-10-18T20:09:51.416Z,101945.95
2018-10-18T20:12:19.591Z,101949.72
2018-10-18T20:14:47.791Z,101954.56
2018-10-18T20:17:15.979Z,101955.41
2018-10-18T20:19:44.251Z,101951.91
2018-10-18T20:22:13.547Z,101951.19
2018-10-18T20:24:42.101Z,101954.34
2018-10-18T20:27:10.890Z,101954.73
2018-10-18T20:29:42.437Z,101962.23
2018-10-18T20:32:10.689Z,101953.75
2018-10-18T20:34:38.815Z,101957.03
2018-10-18T20:37:06.988Z,101960.80
2018-10-18T20:39:35.221Z,101963.24
2018-10-18T20:42:03.380Z,101956.88
2018-10-18T20:44:39.135Z,101962.45
2018-10-18T20:47:07.468Z,101963.69
2018-10-18T20:49:35.495Z,101957.64
2018-10-18T20:52:03.702Z,101957.41
2018-10-18T20:54:31.875Z,101965.20
2018-10-18T20:57:00.049Z,101968.45
2018-10-18T20:59:28.247Z,101966.05
2018-10-18T21:01:56.731Z,101965.33
2018-10-18T21:04:24.946Z,101960.25
2018-10-18T21:06:53.134Z,101962.56
2018-10-18T21:09:21.309Z,101960.87
2018-10-18T21:11:49.504Z,101967.69
2018-10-18T21:14:17.731Z,101962.00
2018-10-18T21:16:45.967Z,101961.52
2018-10-18T21:19:14.226Z,101959.59
2018-10-18T21:21:42.517Z,101961.05
2018-10-18T21:24:10.632Z,101961.17
2018-10-18T21:26:38.815Z,101959.97
2018-10-18T21:29:07.056Z,101954.89
2018-10-18T21:31:35.215Z,101956.48
2018-10-18T21:34:05.752Z,101953.13
2018-10-18T21:36:34.151Z,101952.05
2018-10-18T21:39:08.963Z,101953.51
2018-10-18T21:41:37.587Z,101943.95
2018-10-18T21:44:05.856Z,101948.08
2018-10-18T21:46:34.328Z,101950.86
2018-10-18T21:49:02.759Z,101950.30
2018-10-18T21:51:31.407Z,101946.44
2018-10-18T21:53:59.815Z,101947.05
2018-10-18T21:56:28.008Z,101949.47
2018-10-18T21:58:56.480Z,101948.27
2018-10-18T22:01:24.744Z,101948.52
2018-10-18T22:03:52.955Z,101951.43
2018-10-18T22:06:21.103Z,101948.08
2018-10-18T22:08:49.251Z,101947.36
2018-10-18T22:11:17.408Z,101952.68
2018-10-18T22:13:46.017Z,101950.14
2018-10-18T22:16:14.443Z,101945.42
2018-10-18T22:18:42.656Z,101945.19
2018-10-18T22:21:10.917Z,101943.14
2018-10-18T22:23:39.057Z,101936.97
2018-10-18T22:26:07.214Z,101936.97
2018-10-18T22:28:35.511Z,101933.95
2018-10-18T22:31:04.049Z,101938.91
2018-10-18T22:33:32.542Z,101932.38
2018-10-18T22:36:00.884Z,101930.84
2018-10-18T22:38:29.201Z,101930.00
2018-10-18T22:40:57.541Z,101922.98
2018-10-18T22:43:25.821Z,101927.22
2018-10-18T22:45:59.211Z,101928.68
2018-10-18T22:48:27.941Z,101931.10
2018-10-18T22:50:56.734Z,101932.68
2018-10-18T22:53:25.176Z,101930.66
2018-10-18T22:55:54.051Z,101926.06
2018-10-18T22:58:22.396Z,101928.00
2018-10-18T23:00:50.918Z,101928.13
2018-10-18T23:03:20.352Z,101927.77
2018-10-18T23:05:49.154Z,101927.41
2018-10-18T23:08:17.432Z,101922.33
2018-10-18T23:10:47.941Z,101921.61
2018-10-18T23:13:16.433Z,101921.76
2018-10-18T23:15:44.803Z,101926.11
2018-10-18T23:18:13.228Z,101926.92
2018-10-18T23:20:42.203Z,101919.94
2018-10-18T23:23:11.066Z,101924.91
2018-10-18T23:25:39.747Z,101920.06
2018-10-18T23:28:08.322Z,101917.89
2018-10-18T23:30:36.511Z,101922.81
2018-10-18T23:33:04.778Z,101920.77
2018-10-18T23:35:32.956Z,101921.85
2018-10-18T23:38:01.224Z,101925.84
2018-10-18T23:40:29.421Z,101927.77
2018-10-18T23:46:09.968Z,101926.48
2018-10-18T23:48:38.225Z,101917.77
2018-10-18T23:51:06.413Z,101922.38
2018-10-18T23:53:34.603Z,101909.31
2018-10-18T23:56:02.832Z,101914.27
2018-10-18T23:58:31.059Z,101917.53
